createdAt,value
2023-01-15T00:00:12.053Z,8.33
2023-01-15T00:07:48.063Z,8.41
2023-01-15T00:15:22.111Z,8.44
2023-01-15T00:22:57.176Z,8.51
2023-01-15T00:30:31.419Z,8.51
2023-01-15T00:38:06.719Z,8.56
2023-01-15T00:45:40.522Z,8.56
2023-01-15T00:53:15.681Z,8.67
2023-01-15T01:00:55.381Z,8.65
2023-01-15T01:08:32.270Z,8.70
2023-01-15T01:16:22.018Z,8.76
2023-01-15T01:23:59.619Z,8.73
2023-01-15T01:31:33.505Z,8.81
2023-01-15T01:39:13.247Z,8.83
2023-01-15T01:46:46.980Z,8.89
2023-01-15T01:54:24.923Z,8.91
2023-01-15T02:01:59.190Z,8.91
2023-01-15T02:09:34.644Z,8.88
2023-01-15T02:17:16.430Z,8.86
2023-01-15T02:25:01.862Z,8.85
2023-01-15T02:32:42.087Z,8.85
2023-01-15T02:40:16.788Z,8.83
2023-01-15T02:47:54.311Z,8.80
2023-01-15T02:55:31.788Z,8.83
2023-01-15T03:03:15.055Z,8.84
2023-01-15T03:10:55.082Z,8.81
2023-01-15T03:18:34.959Z,8.85
2023-01-15T03:26:08.827Z,8.86
2023-01-15T03:33:44.221Z,8.86
2023-01-15T03:41:25.946Z,8.84
2023-01-15T03:49:10.595Z,8.85
2023-01-15T03:56:55.452Z,8.86
2023-01-15T04:04:32.650Z,8.86
2023-01-15T04:12:07.500Z,8.37
2023-01-15T04:19:43.670Z,8.14
2023-01-15T04:27:17.567Z,7.33
2023-01-15T04:34:52.666Z,6.94
2023-01-15T04:42:44.337Z,6.63
2023-01-15T04:50:19.781Z,6.29
2023-01-15T04:57:53.736Z,6.20
2023-01-15T05:05:29.035Z,6.13
2023-01-15T05:13:02.790Z,6.11
2023-01-15T05:20:38.834Z,6.03
2023-01-15T05:28:12.637Z,6.09
2023-01-15T05:35:47.833Z,6.13
2023-01-15T05:43:21.896Z,6.13
2023-01-15T05:50:57.163Z,6.10
2023-01-15T05:58:31.108Z,6.10
2023-01-15T06:06:06.647Z,6.18
2023-01-15T06:13:41.282Z,6.23
2023-01-15T06:21:16.656Z,6.26
2023-01-15T06:28:51.025Z,6.25
2023-01-15T06:36:29.739Z,6.27
2023-01-15T06:44:21.554Z,6.28
2023-01-15T06:51:56.974Z,6.11
2023-01-15T06:59:30.954Z,6.13
2023-01-15T07:07:07.675Z,6.13
2023-01-15T07:14:41.450Z,6.12
2023-01-15T07:22:16.750Z,6.09
2023-01-15T07:29:52.332Z,6.05
2023-01-15T07:37:28.725Z,5.96
2023-01-15T07:45:20.413Z,5.99
2023-01-15T07:52:55.867Z,6.00
2023-01-15T08:00:29.774Z,5.98
2023-01-15T08:08:05.738Z,5.93
2023-01-15T08:15:41.245Z,5.91
2023-01-15T08:23:16.410Z,5.94
2023-01-15T08:30:50.459Z,5.95
2023-01-15T08:38:26.070Z,5.94
2023-01-15T08:46:01.029Z,5.86
2023-01-15T08:53:36.767Z,5.86
2023-01-15T09:01:15.827Z,5.91
2023-01-15T09:08:51.612Z,5.93
2023-01-15T09:16:26.799Z,5.92
2023-01-15T09:24:03.085Z,5.94
2023-01-15T09:31:38.582Z,5.96
2023-01-15T09:39:13.917Z,6.02
2023-01-15T09:47:03.074Z,6.03
2023-01-15T09:54:49.812Z,6.09
2023-01-15T10:02:28.579Z,6.10
2023-01-15T10:10:07.537Z,6.17
2023-01-15T10:17:43.766Z,6.24
2023-01-15T10:25:26.343Z,6.28
2023-01-15T10:33:12.736Z,6.32
2023-01-15T10:41:19.694Z,6.41
2023-01-15T10:48:58.556Z,6.47
2023-01-15T10:56:39.235Z,6.50
2023-01-15T11:04:14.094Z,6.60
2023-01-15T11:12:09.932Z,6.67
2023-01-15T11:19:45.219Z,6.71
2023-01-15T11:27:24.018Z,6.73
2023-01-15T11:35:00.515Z,6.75
2023-01-15T11:42:55.821Z,6.78
2023-01-15T11:50:47.597Z,6.75
2023-01-15T11:58:24.943Z,6.81
2023-01-15T12:06:02.695Z,6.81
2023-01-15T12:13:50.108Z,6.86
2023-01-15T12:21:39.862Z,6.88
2023-01-15T12:29:22.814Z,6.91
2023-01-15T12:37:01.295Z,6.96
2023-01-15T12:45:00.839Z,6.99
2023-01-15T12:52:41.161Z,7.00
2023-01-15T13:00:21.419Z,7.01
2023-01-15T13:07:59.988Z,7.00
2023-01-15T13:15:41.308Z,7.07
2023-01-15T13:23:31.921Z,7.10
2023-01-15T13:31:22.958Z,7.04
2023-01-15T13:39:01.641Z,6.95
2023-01-15T13:46:36.914Z,6.87
2023-01-15T13:54:16.733Z,6.83
2023-01-15T14:01:52.091Z,6.82
2023-01-15T14:09:32.064Z,6.82
2023-01-15T14:17:26.420Z,6.80
2023-01-15T14:25:22.848Z,6.73
2023-01-15T14:33:10.697Z,6.68
2023-01-15T14:40:55.664Z,6.62
2023-01-15T14:48:40.458Z,6.61
2023-01-15T14:56:22.027Z,6.62
2023-01-15T15:03:59.993Z,6.60
2023-01-15T15:11:57.807Z,6.50
2023-01-15T15:19:40.601Z,6.40
2023-01-15T15:27:19.200Z,6.31
2023-01-15T15:34:56.299Z,6.24
2023-01-15T15:42:51.226Z,6.16
2023-01-15T15:50:29.302Z,6.06
2023-01-15T15:58:04.628Z,5.98
2023-01-15T16:05:40.283Z,5.87
2023-01-15T16:13:22.438Z,5.78
2023-01-15T16:20:59.690Z,5.76
2023-01-15T16:28:39.275Z,5.65
2023-01-15T16:36:14.584Z,5.62
2023-01-15T16:43:54.631Z,5.56
2023-01-15T16:51:34.758Z,5.50
2023-01-15T16:59:16.930Z,5.48
2023-01-15T17:07:02.419Z,5.49
2023-01-15T17:14:36.425Z,5.49
2023-01-15T17:22:16.855Z,5.46
2023-01-15T17:29:50.864Z,5.43
2023-01-15T17:37:26.341Z,5.45
2023-01-15T17:45:00.343Z,5.47
2023-01-15T17:52:35.492Z,5.47
2023-01-15T18:00:29.658Z,5.43
2023-01-15T18:08:08.205Z,5.48
2023-01-15T18:15:42.027Z,5.55
2023-01-15T18:23:18.591Z,5.57
2023-01-15T18:30:55.435Z,5.54
2023-01-15T18:38:30.680Z,5.55
2023-01-15T18:46:29.109Z,5.63
2023-01-15T18:54:06.278Z,5.64
2023-01-15T19:01:41.406Z,5.64
2023-01-15T19:09:16.840Z,5.67
2023-01-15T19:17:08.479Z,5.66
2023-01-15T19:24:44.333Z,5.70
2023-01-15T19:32:18.326Z,5.71
2023-01-15T19:39:53.882Z,5.72
2023-01-15T19:47:54.442Z,5.75
2023-01-15T19:55:31.429Z,5.73
2023-01-15T20:03:05.610Z,5.69
2023-01-15T20:10:41.655Z,5.64
2023-01-15T20:18:17.267Z,5.63
2023-01-15T20:25:54.217Z,5.59
2023-01-15T20:33:28.066Z,5.56
2023-01-15T20:41:22.293Z,5.55
2023-01-15T20:49:13.322Z,5.50
2023-01-15T20:56:48.649Z,5.50
2023-01-15T21:04:25.384Z,5.49
2023-01-15T21:12:00.497Z,5.46
2023-01-15T21:19:34.315Z,5.44
2023-01-15T21:27:09.576Z,5.42
2023-01-15T21:34:43.311Z,5.39
2023-01-15T21:42:38.409Z,5.39
2023-01-15T21:50:12.338Z,5.42
2023-01-15T21:57:48.933Z,5.41
2023-01-15T22:05:23.304Z,5.41
2023-01-15T22:12:58.501Z,5.39
2023-01-15T22:20:32.206Z,5.33
2023-01-15T22:28:08.423Z,5.25
2023-01-15T22:35:42.350Z,5.20
2023-01-15T22:43:17.702Z,5.12
2023-01-15T22:50:51.408Z,5.10
2023-01-15T22:58:27.101Z,5.04
2023-01-15T23:06:04.318Z,5.05
2023-01-15T23:13:40.109Z,5.05
2023-01-15T23:21:15.988Z,5.09
2023-01-15T23:28:53.356Z,5.09
2023-01-15T23:36:27.721Z,5.11
2023-01-15T23:44:20.906Z,5.16
2023-01-15T23:51:55.299Z,5.11
2023-01-15T23:59:30.895Z,5.09
